KMSO/MSO METAR and TAF weather

Enter ICAO airport designator
Station Type Date Time Source
KMSO METAR 2022/07/03 13:53 UTC NOAA

KMSO 031353Z 27007KT 10SM CLR 14/11 A2989 RMK AO2 SLP105 T01390106


Station Type Date Time Source
KMSO Decoded METAR 2022/07/03 13:53 UTC NOAA

MISSOULA INTERNATIONAL AIRPORT , MT, United States (KMSO) 46-55N 114-06W 975M
Jul 03, 2022 - 09:53 AM EDT / 2022.07.03 1353 UTC
Wind: from the W (270 degrees) at 8 MPH (7 KT):0
Visibility: 10 mile(s):0
Sky conditions: clear
Temperature: 57.0 F (13.9 C)
Dew Point: 51.1 F (10.6 C)
Relative Humidity: 80%
Pressure (altimeter): 29.89 in. Hg (1012 hPa)
ob: KMSO 031353Z 27007KT 10SM CLR 14/11 A2989 RMK AO2 SLP105 T01390106
cycle: 14

Station Type Date Time Source
KMSO TAF 2022/07/03 12:22 UTC NOAA

TAF KMSO 031120Z 0312/0412 31006KT P6SM SKC
FM031300 33006KT P6SM BKN100
FM031500 07008KT P6SM -SHRA BKN060 BKN120
FM032000 12012KT P6SM -SHRA VCTS BKN060 BKN100CB
FM040700 31010KT P6SM -SHRA OVC050

Example: see airport list